createdAt,value
2022-10-25T00:00:18.680Z,99.99
2022-10-25T00:01:18.798Z,99.99
2022-10-25T00:02:18.746Z,99.99
2022-10-25T00:03:19.664Z,99.99
2022-10-25T00:04:18.701Z,99.99
2022-10-25T00:05:18.648Z,99.99
2022-10-25T00:06:18.635Z,99.89
2022-10-25T00:07:18.622Z,99.64
2022-10-25T00:08:18.616Z,99.64
2022-10-25T00:09:18.639Z,99.74
2022-10-25T00:10:21.102Z,99.64
2022-10-25T00:11:19.593Z,99.95
2022-10-25T00:12:18.589Z,99.74
2022-10-25T00:13:18.584Z,99.74
2022-10-25T00:14:18.628Z,99.54
2022-10-25T00:15:18.560Z,99.64
2022-10-25T00:16:18.550Z,99.64
2022-10-25T00:17:18.540Z,99.64
2022-10-25T00:18:18.542Z,99.54
2022-10-25T00:19:18.580Z,99.54
2022-10-25T00:20:18.513Z,99.74
2022-10-25T00:21:18.508Z,99.64
2022-10-25T00:22:18.503Z,99.54
2022-10-25T00:23:18.488Z,99.38
2022-10-25T00:24:18.483Z,99.79
2022-10-25T00:25:18.501Z,99.69
2022-10-25T00:26:18.464Z,99.99
2022-10-25T00:27:18.452Z,99.84
2022-10-25T00:28:18.444Z,99.99
2022-10-25T00:29:18.498Z,99.99
2022-10-25T00:30:18.457Z,99.99
2022-10-25T00:31:18.421Z,99.99
2022-10-25T00:32:18.413Z,99.99
2022-10-25T00:33:18.407Z,99.99
2022-10-25T00:34:18.395Z,99.99
2022-10-25T00:35:18.414Z,99.99
2022-10-25T00:36:18.383Z,99.99
2022-10-25T00:37:18.373Z,99.99
2022-10-25T00:38:18.362Z,99.99
2022-10-25T00:39:18.355Z,99.99
2022-10-25T00:40:18.376Z,99.99
2022-10-25T00:41:18.338Z,99.99
2022-10-25T00:42:18.333Z,99.99
2022-10-25T00:43:18.325Z,99.99
2022-10-25T00:44:18.314Z,99.99
2022-10-25T00:45:18.329Z,99.99
2022-10-25T00:46:18.299Z,99.99
2022-10-25T00:47:18.290Z,99.99
2022-10-25T00:48:18.282Z,99.99
2022-10-25T00:49:18.271Z,99.99
2022-10-25T00:50:18.284Z,99.99
2022-10-25T00:51:18.253Z,99.99
2022-10-25T00:52:18.235Z,99.99
2022-10-25T00:53:18.231Z,99.99
2022-10-25T00:54:18.290Z,99.99
2022-10-25T00:55:18.245Z,99.99
2022-10-25T00:56:18.209Z,99.99
2022-10-25T00:57:18.193Z,99.99
2022-10-25T00:58:18.193Z,99.99
2022-10-25T00:59:18.189Z,99.99
2022-10-25T01:00:18.214Z,99.99
2022-10-25T01:01:18.261Z,99.99
2022-10-25T01:02:18.232Z,99.99
2022-10-25T01:03:18.146Z,99.99
2022-10-25T01:04:18.142Z,99.99
2022-10-25T01:05:18.161Z,99.99
2022-10-25T01:06:18.145Z,99.99
2022-10-25T01:07:18.111Z,99.99
2022-10-25T01:08:18.106Z,99.99
2022-10-25T01:09:18.104Z,99.99
2022-10-25T01:10:18.118Z,99.99
2022-10-25T01:12:18.070Z,99.99
2022-10-25T01:13:18.064Z,99.99
2022-10-25T01:14:18.061Z,99.99
2022-10-25T01:15:18.079Z,99.99
2022-10-25T01:16:18.031Z,99.99
2022-10-25T01:17:18.028Z,99.99
2022-10-25T01:18:18.020Z,99.99
2022-10-25T01:19:18.008Z,99.99
2022-10-25T01:20:18.048Z,99.99
2022-10-25T01:21:17.989Z,99.99
2022-10-25T01:22:17.988Z,99.99
2022-10-25T01:23:17.975Z,99.99
2022-10-25T01:24:17.969Z,99.99
2022-10-25T01:25:17.989Z,99.99
2022-10-25T01:26:17.948Z,99.99
2022-10-25T01:27:17.940Z,99.99
2022-10-25T01:28:17.935Z,99.99
2022-10-25T01:29:17.921Z,99.99
2022-10-25T01:30:17.950Z,99.99
2022-10-25T01:31:17.910Z,99.99
2022-10-25T01:32:17.906Z,99.99
2022-10-25T01:33:17.894Z,99.99
2022-10-25T01:34:17.880Z,99.99
2022-10-25T01:35:17.905Z,99.99
2022-10-25T01:36:17.890Z,99.99
2022-10-25T01:37:17.861Z,99.99
2022-10-25T01:38:17.854Z,99.99
2022-10-25T01:39:17.843Z,99.99
2022-10-25T01:40:17.865Z,99.99
2022-10-25T01:41:17.827Z,99.99
2022-10-25T01:42:17.817Z,99.99
2022-10-25T01:43:17.806Z,99.99
2022-10-25T01:44:17.803Z,99.99
2022-10-25T01:45:17.819Z,99.99
2022-10-25T01:46:17.777Z,99.99
2022-10-25T01:47:17.783Z,99.99
2022-10-25T01:48:17.766Z,99.99
2022-10-25T01:49:17.756Z,99.99
2022-10-25T01:50:17.777Z,99.99
2022-10-25T01:51:17.737Z,99.99
2022-10-25T01:52:17.729Z,99.99
2022-10-25T01:53:17.725Z,99.99
2022-10-25T01:54:17.714Z,99.99
2022-10-25T01:55:17.742Z,99.99
2022-10-25T01:56:17.699Z,99.99
2022-10-25T01:57:36.685Z,99.99
2022-10-25T01:58:18.685Z,99.99
2022-10-25T01:59:17.677Z,99.99
2022-10-25T02:00:17.661Z,99.99
2022-10-25T02:01:17.882Z,99.99
2022-10-25T02:02:17.652Z,99.99
2022-10-25T02:03:17.634Z,99.99
2022-10-25T02:04:17.632Z,99.99
2022-10-25T02:05:17.626Z,99.99
2022-10-25T02:06:17.639Z,99.99
2022-10-25T02:07:17.609Z,99.99
2022-10-25T02:08:17.600Z,99.99
2022-10-25T02:09:17.593Z,99.99
2022-10-25T02:10:17.586Z,99.99
2022-10-25T02:11:17.606Z,99.99
2022-10-25T02:12:17.569Z,99.99
2022-10-25T02:13:17.555Z,99.99
2022-10-25T02:14:17.542Z,99.99
2022-10-25T02:15:17.542Z,99.99
2022-10-25T02:16:17.558Z,99.99
2022-10-25T02:17:17.527Z,99.99
2022-10-25T02:18:17.563Z,99.99
2022-10-25T02:19:17.503Z,99.99
2022-10-25T02:20:17.496Z,99.99
2022-10-25T02:21:17.522Z,99.99
2022-10-25T02:22:17.485Z,99.99
2022-10-25T02:23:17.466Z,99.99
2022-10-25T02:24:17.464Z,99.99
2022-10-25T02:25:17.472Z,99.99
2022-10-25T02:26:17.478Z,99.99
2022-10-25T02:27:17.431Z,99.99
2022-10-25T02:28:18.431Z,99.99
2022-10-25T02:29:17.433Z,99.99
2022-10-25T02:30:17.422Z,99.99
2022-10-25T02:31:17.432Z,99.99
2022-10-25T02:32:17.402Z,99.99
2022-10-25T02:33:17.400Z,99.99
2022-10-25T02:34:17.380Z,99.99
2022-10-25T02:35:17.383Z,99.99
2022-10-25T02:36:17.398Z,99.99
2022-10-25T02:37:17.353Z,99.99
2022-10-25T02:38:17.349Z,99.99
2022-10-25T02:39:17.335Z,99.99
2022-10-25T02:40:17.324Z,99.99
2022-10-25T02:41:17.349Z,99.99
2022-10-25T02:42:17.311Z,99.99
2022-10-25T02:43:17.319Z,99.99
2022-10-25T02:44:17.294Z,99.99
2022-10-25T02:45:17.297Z,99.99
2022-10-25T02:46:17.311Z,99.99
2022-10-25T02:47:17.272Z,99.99
2022-10-25T02:48:17.258Z,99.99
2022-10-25T02:49:17.256Z,99.99
2022-10-25T02:50:17.241Z,99.99
2022-10-25T02:51:17.261Z,99.99
2022-10-25T02:52:17.229Z,99.99
2022-10-25T02:53:17.215Z,99.99
2022-10-25T02:54:17.216Z,99.99
2022-10-25T02:55:17.203Z,99.99
2022-10-25T02:56:17.227Z,99.99
2022-10-25T02:57:17.184Z,99.99
2022-10-25T02:58:17.185Z,99.99
2022-10-25T02:59:17.175Z,99.99
2022-10-25T03:00:17.171Z,99.99
2022-10-25T03:01:17.296Z,99.99
2022-10-25T03:02:17.142Z,99.99
2022-10-25T03:03:17.134Z,99.99
2022-10-25T03:04:17.130Z,99.99
2022-10-25T03:05:17.118Z,99.99
2022-10-25T03:06:17.136Z,99.99
2022-10-25T03:07:17.115Z,99.99
2022-10-25T03:08:18.142Z,99.99
2022-10-25T03:09:17.082Z,99.99
2022-10-25T03:10:17.077Z,99.99
2022-10-25T03:11:17.089Z,99.99
2022-10-25T03:12:17.064Z,99.99
2022-10-25T03:13:17.049Z,99.99
2022-10-25T03:14:17.044Z,99.99
2022-10-25T03:15:17.035Z,99.99
2022-10-25T03:16:17.048Z,99.99
2022-10-25T03:17:17.016Z,99.99
2022-10-25T03:18:17.005Z,99.99
2022-10-25T03:19:17.005Z,99.99
2022-10-25T03:20:16.985Z,99.99
2022-10-25T03:21:17.008Z,99.99
2022-10-25T03:22:16.973Z,99.99
2022-10-25T03:23:16.957Z,99.99
2022-10-25T03:24:16.951Z,99.99
2022-10-25T03:25:16.943Z,99.99
2022-10-25T03:26:16.975Z,99.99
2022-10-25T03:27:16.934Z,99.99
2022-10-25T03:28:16.922Z,99.99
2022-10-25T03:29:16.918Z,99.99
2022-10-25T03:30:16.904Z,99.99
2022-10-25T03:31:16.902Z,99.99
2022-10-25T03:32:16.917Z,99.99
2022-10-25T03:33:16.913Z,99.99
2022-10-25T03:34:16.870Z,99.99
2022-10-25T03:35:16.861Z,99.99
2022-10-25T03:36:16.856Z,99.99
2022-10-25T03:37:16.871Z,99.99
2022-10-25T03:38:16.835Z,99.99
2022-10-25T03:39:16.836Z,99.99
2022-10-25T03:40:16.824Z,99.99
2022-10-25T03:41:16.829Z,99.99
2022-10-25T03:42:16.845Z,99.99
2022-10-25T03:43:16.878Z,99.99
2022-10-25T03:44:16.792Z,99.99
2022-10-25T03:45:16.784Z,99.99
2022-10-25T03:46:16.773Z,99.99
2022-10-25T03:47:16.793Z,99.99
2022-10-25T03:48:16.756Z,99.99
2022-10-25T03:49:16.747Z,99.99
2022-10-25T03:50:16.739Z,99.99
2022-10-25T03:51:16.736Z,99.99
2022-10-25T03:52:16.754Z,99.99
2022-10-25T03:53:16.715Z,99.99
2022-10-25T03:54:16.703Z,99.99
2022-10-25T03:55:16.695Z,99.99
2022-10-25T03:56:16.683Z,99.99
2022-10-25T03:57:16.708Z,99.99
2022-10-25T03:58:16.679Z,99.99
2022-10-25T03:59:16.663Z,99.99
2022-10-25T04:00:16.656Z,99.99
2022-10-25T04:01:16.831Z,99.99
2022-10-25T04:02:16.670Z,99.99
2022-10-25T04:03:16.633Z,99.99
2022-10-25T04:04:16.620Z,99.99
2022-10-25T04:05:16.611Z,99.99
2022-10-25T04:06:16.604Z,99.99
2022-10-25T04:07:16.626Z,99.99
2022-10-25T04:08:16.582Z,99.99
2022-10-25T04:09:16.585Z,99.99
2022-10-25T04:10:16.570Z,99.99
2022-10-25T04:11:16.559Z,99.99
2022-10-25T04:12:16.582Z,99.99
2022-10-25T04:13:16.543Z,99.99
2022-10-25T04:14:16.538Z,99.99
2022-10-25T04:15:16.532Z,99.99
2022-10-25T04:16:18.365Z,99.99
2022-10-25T04:17:16.533Z,99.99
2022-10-25T04:18:16.504Z,99.99
2022-10-25T04:19:16.493Z,99.99
2022-10-25T04:20:16.484Z,99.99
2022-10-25T04:21:16.474Z,99.99
2022-10-25T04:22:16.499Z,99.99
2022-10-25T04:23:16.450Z,99.99
2022-10-25T04:24:16.449Z,99.99
2022-10-25T04:25:16.438Z,99.99
2022-10-25T04:26:16.428Z,99.99
2022-10-25T04:27:16.456Z,99.99
2022-10-25T04:28:16.425Z,99.99
2022-10-25T04:29:16.403Z,99.99
2022-10-25T04:30:16.400Z,99.99
2022-10-25T04:31:16.386Z,99.99
2022-10-25T04:32:16.486Z,99.99
2022-10-25T04:33:16.369Z,99.99
2022-10-25T04:34:17.362Z,99.99
2022-10-25T04:35:16.356Z,99.99
2022-10-25T04:36:16.343Z,99.99
2022-10-25T04:37:16.373Z,99.99
2022-10-25T04:38:16.327Z,99.99
2022-10-25T04:39:17.319Z,99.99
2022-10-25T04:40:18.210Z,99.99
2022-10-25T04:41:16.302Z,99.99
2022-10-25T04:42:16.320Z,99.99
2022-10-25T04:43:16.344Z,99.99
2022-10-25T04:44:16.274Z,99.99
2022-10-25T04:45:16.264Z,99.99
2022-10-25T04:46:16.257Z,99.99
2022-10-25T04:47:16.283Z,99.99
2022-10-25T04:48:16.238Z,99.99
2022-10-25T04:49:16.231Z,99.99
2022-10-25T04:50:16.223Z,99.99
2022-10-25T04:51:16.217Z,99.99
2022-10-25T04:52:16.237Z,99.99
2022-10-25T04:53:16.198Z,99.99
2022-10-25T04:54:16.191Z,99.99
2022-10-25T04:55:16.180Z,99.99
2022-10-25T04:56:16.174Z,99.99
2022-10-25T04:57:16.195Z,99.99
2022-10-25T04:58:16.153Z,99.99
2022-10-25T04:59:16.151Z,99.99
2022-10-25T05:00:16.136Z,99.99
2022-10-25T05:01:16.162Z,99.99
2022-10-25T05:02:16.122Z,99.99
2022-10-25T05:03:16.168Z,99.99
2022-10-25T05:04:16.100Z,99.99
2022-10-25T05:05:16.096Z,99.99
2022-10-25T05:06:16.096Z,99.99
2022-10-25T05:07:16.079Z,99.99
2022-10-25T05:08:16.105Z,99.99
2022-10-25T05:09:16.068Z,99.99
2022-10-25T05:10:16.053Z,99.99
2022-10-25T05:11:16.057Z,99.99
2022-10-25T05:12:16.035Z,99.99
2022-10-25T05:13:16.057Z,99.99
2022-10-25T05:14:16.023Z,99.99
2022-10-25T05:15:16.008Z,99.99
2022-10-25T05:16:16.004Z,99.99
2022-10-25T05:17:15.997Z,99.99
2022-10-25T05:18:16.026Z,99.99
2022-10-25T05:19:15.983Z,99.99
2022-10-25T05:20:15.974Z,99.99
2022-10-25T05:21:16.019Z,99.99
2022-10-25T05:22:15.958Z,99.99
2022-10-25T05:23:15.968Z,99.99
2022-10-25T05:24:15.937Z,99.99
2022-10-25T05:25:15.928Z,99.99
2022-10-25T05:26:15.918Z,99.99
2022-10-25T05:27:15.914Z,99.99
2022-10-25T05:28:15.935Z,99.99
2022-10-25T05:29:15.897Z,99.99
2022-10-25T05:30:15.886Z,99.99
2022-10-25T05:31:16.015Z,99.99
2022-10-25T05:32:15.862Z,99.99
2022-10-25T05:33:15.888Z,99.99
2022-10-25T05:34:15.846Z,99.99
2022-10-25T05:35:15.840Z,99.99
2022-10-25T05:36:15.829Z,99.99
2022-10-25T05:37:15.831Z,99.99
2022-10-25T05:38:15.857Z,99.99
2022-10-25T05:39:15.808Z,99.99
2022-10-25T05:40:15.810Z,99.99
2022-10-25T05:41:15.799Z,99.99
2022-10-25T05:42:15.780Z,99.99
2022-10-25T05:43:15.808Z,99.99
2022-10-25T05:44:15.771Z,99.99
2022-10-25T05:45:15.762Z,99.99
2022-10-25T05:46:15.751Z,99.99
2022-10-25T05:47:15.742Z,99.99
2022-10-25T05:48:15.732Z,99.99
2022-10-25T05:49:15.761Z,99.99
2022-10-25T05:50:15.722Z,99.99
2022-10-25T05:51:28.955Z,99.99
2022-10-25T05:52:17.703Z,99.99
2022-10-25T05:53:15.690Z,99.99
2022-10-25T05:54:15.712Z,99.99
2022-10-25T05:55:15.676Z,99.99
2022-10-25T05:56:15.673Z,99.99
2022-10-25T05:57:15.663Z,99.99
2022-10-25T05:58:15.647Z,99.99
2022-10-25T05:59:15.670Z,99.99
2022-10-25T06:00:15.640Z,99.99
2022-10-25T06:01:15.691Z,99.99
2022-10-25T06:02:15.702Z,99.99
2022-10-25T06:03:15.609Z,99.99
2022-10-25T06:04:15.631Z,99.99
2022-10-25T06:05:15.606Z,99.99
2022-10-25T06:06:15.595Z,99.99
2022-10-25T06:07:15.571Z,99.99
2022-10-25T06:08:15.564Z,99.99
2022-10-25T06:09:15.598Z,99.99
2022-10-25T06:10:15.547Z,99.99
2022-10-25T06:11:15.548Z,99.99
2022-10-25T06:12:15.534Z,99.99
2022-10-25T06:13:15.523Z,99.99
2022-10-25T06:14:15.543Z,99.99
2022-10-25T06:15:15.501Z,99.99
2022-10-25T06:16:15.504Z,99.99
2022-10-25T06:17:15.483Z,99.99
2022-10-25T06:18:15.478Z,99.99
2022-10-25T06:19:15.501Z,99.99
2022-10-25T06:20:15.479Z,99.99
2022-10-25T06:21:15.466Z,99.99
2022-10-25T06:22:15.448Z,99.99
2022-10-25T06:23:15.438Z,99.99
2022-10-25T06:24:15.461Z,99.99
2022-10-25T06:25:15.443Z,99.99
2022-10-25T06:26:15.413Z,99.99
2022-10-25T06:27:15.430Z,99.99
2022-10-25T06:28:15.397Z,99.99
2022-10-25T06:29:15.420Z,99.99
2022-10-25T06:30:15.379Z,99.99
2022-10-25T06:31:15.372Z,99.99
2022-10-25T06:32:15.372Z,99.99
2022-10-25T06:33:15.361Z,99.99
2022-10-25T06:34:15.393Z,99.99
2022-10-25T06:35:15.336Z,99.99
2022-10-25T06:36:15.331Z,99.99
2022-10-25T06:37:15.330Z,99.99
2022-10-25T06:38:15.319Z,99.99
2022-10-25T06:39:15.343Z,99.99
2022-10-25T06:40:15.312Z,99.99
2022-10-25T06:41:15.288Z,99.99
2022-10-25T06:42:15.275Z,99.99
2022-10-25T06:43:15.263Z,99.99
2022-10-25T06:44:15.291Z,99.99
2022-10-25T06:45:15.257Z,99.99
2022-10-25T06:46:15.251Z,99.99
2022-10-25T06:47:17.658Z,99.99
2022-10-25T06:48:16.218Z,99.99
2022-10-25T06:49:15.254Z,99.99
2022-10-25T06:50:15.207Z,99.99
2022-10-25T06:51:15.199Z,99.99
2022-10-25T06:52:15.193Z,99.99
2022-10-25T06:53:15.189Z,99.99
2022-10-25T06:54:15.208Z,99.99
2022-10-25T06:55:15.157Z,99.99
2022-10-25T06:56:15.330Z,99.99
2022-10-25T06:57:15.144Z,99.99
2022-10-25T06:58:15.141Z,99.99
2022-10-25T06:59:15.128Z,99.99
2022-10-25T07:00:15.164Z,99.99
2022-10-25T07:01:15.237Z,99.99
2022-10-25T07:02:15.242Z,99.99
2022-10-25T07:03:15.092Z,99.99
2022-10-25T07:04:15.129Z,99.99
2022-10-25T07:05:15.078Z,99.99
2022-10-25T07:06:15.064Z,99.99
2022-10-25T07:07:15.065Z,99.99
2022-10-25T07:08:15.057Z,99.99
2022-10-25T07:09:15.071Z,99.99
2022-10-25T07:10:15.029Z,99.99
2022-10-25T07:11:15.024Z,99.99
2022-10-25T07:12:15.021Z,99.99
2022-10-25T07:13:15.010Z,99.99
2022-10-25T07:14:14.996Z,99.99
2022-10-25T07:15:15.070Z,99.99
2022-10-25T07:16:14.984Z,99.99
2022-10-25T07:17:14.974Z,99.99
2022-10-25T07:18:14.962Z,99.99
2022-10-25T07:19:14.987Z,99.69
2022-10-25T07:20:14.942Z,99.99
2022-10-25T07:21:14.940Z,99.99
2022-10-25T07:22:14.931Z,99.99
2022-10-25T07:23:14.928Z,99.99
2022-10-25T07:24:14.920Z,99.99
2022-10-25T07:25:14.954Z,99.69
2022-10-25T07:26:14.899Z,99.58
2022-10-25T07:27:14.888Z,99.99
2022-10-25T07:28:14.878Z,99.99
2022-10-25T07:29:15.090Z,99.69
2022-10-25T07:30:14.889Z,99.89
2022-10-25T07:31:14.851Z,99.99
2022-10-25T07:32:14.836Z,99.99
2022-10-25T07:33:14.830Z,99.99
2022-10-25T07:34:14.822Z,99.69
2022-10-25T07:35:14.854Z,99.49
2022-10-25T07:36:14.822Z,99.49
2022-10-25T07:37:14.799Z,99.79
2022-10-25T07:38:14.787Z,99.58
2022-10-25T07:39:14.778Z,99.94
2022-10-25T07:40:14.808Z,99.99
2022-10-25T07:41:14.766Z,99.99
2022-10-25T07:42:14.750Z,99.99
2022-10-25T07:43:14.737Z,99.99
2022-10-25T07:44:17.588Z,99.89
2022-10-25T07:45:18.685Z,99.69
2022-10-25T07:46:15.718Z,99.58
2022-10-25T07:47:14.708Z,99.79
2022-10-25T07:48:14.705Z,99.13
2022-10-25T07:49:14.694Z,99.18
2022-10-25T07:50:14.710Z,99.13
2022-10-25T07:51:14.691Z,98.52
2022-10-25T07:52:14.673Z,98.22
2022-10-25T07:53:14.660Z,98.52
2022-10-25T07:54:14.654Z,99.19
2022-10-25T07:55:14.685Z,98.58
2022-10-25T07:56:17.464Z,98.18
2022-10-25T07:57:15.628Z,98.18
2022-10-25T07:58:14.614Z,98.58
2022-10-25T07:59:14.611Z,98.58
2022-10-25T08:00:14.640Z,97.92
2022-10-25T08:01:14.614Z,98.02
2022-10-25T08:02:14.577Z,98.43
2022-10-25T08:03:14.686Z,98.52
2022-10-25T08:04:14.561Z,99.24
2022-10-25T08:05:14.562Z,98.52
2022-10-25T08:06:14.579Z,98.63
2022-10-25T08:07:14.546Z,98.18
2022-10-25T08:08:14.532Z,98.63
2022-10-25T08:09:33.121Z,98.73
2022-10-25T08:10:15.555Z,98.63
2022-10-25T08:11:14.519Z,98.83
2022-10-25T08:12:16.212Z,98.73
2022-10-25T08:13:14.483Z,98.93
2022-10-25T08:14:14.543Z,98.52
2022-10-25T08:15:14.485Z,99.24
2022-10-25T08:16:14.504Z,98.73
2022-10-25T08:17:14.454Z,98.32
2022-10-25T08:18:14.448Z,98.52
2022-10-25T08:19:14.443Z,98.43
2022-10-25T08:20:14.433Z,98.32
2022-10-25T08:21:14.451Z,98.58
2022-10-25T08:22:14.435Z,98.12
2022-10-25T08:23:14.421Z,97.87
2022-10-25T08:24:14.484Z,98.28
2022-10-25T08:25:14.393Z,98.38
2022-10-25T08:26:14.417Z,98.73
2022-10-25T08:27:14.376Z,98.99
2022-10-25T08:28:14.368Z,99.13
2022-10-25T08:29:14.349Z,98.43
2022-10-25T08:30:14.346Z,98.52
2022-10-25T08:31:14.431Z,97.77
2022-10-25T08:32:14.330Z,97.77
2022-10-25T08:33:14.325Z,98.23
2022-10-25T08:34:14.326Z,98.48
2022-10-25T08:35:14.316Z,98.07
2022-10-25T08:36:14.333Z,98.38
2022-10-25T08:37:14.297Z,98.28
2022-10-25T08:38:14.282Z,98.07
2022-10-25T08:39:14.270Z,98.28
2022-10-25T08:40:14.260Z,98.23
2022-10-25T08:41:14.283Z,97.62
2022-10-25T08:42:14.245Z,97.62
2022-10-25T08:43:14.243Z,96.71
2022-10-25T08:44:14.229Z,96.91
2022-10-25T08:45:14.215Z,96.91
2022-10-25T08:46:14.237Z,97.11
2022-10-25T08:47:14.201Z,96.46
2022-10-25T08:48:14.199Z,96.71
2022-10-25T08:49:14.181Z,95.90
2022-10-25T08:50:14.174Z,96.00
2022-10-25T08:51:14.208Z,96.06
2022-10-25T08:52:16.718Z,95.65
2022-10-25T08:53:15.152Z,95.65
2022-10-25T08:54:14.142Z,95.65
2022-10-25T08:55:14.131Z,95.00
2022-10-25T08:56:17.746Z,94.59
2022-10-25T08:57:16.293Z,94.55
2022-10-25T08:58:15.117Z,93.48
2022-10-25T08:59:14.100Z,94.39
2022-10-25T09:00:14.091Z,94.59
2022-10-25T09:01:14.229Z,94.35
2022-10-25T09:02:14.150Z,94.75
2022-10-25T09:03:15.387Z,94.45
2022-10-25T09:04:15.071Z,94.35
2022-10-25T09:05:14.047Z,93.74
2022-10-25T09:06:14.067Z,94.24
2022-10-25T09:07:14.063Z,94.14
2022-10-25T09:08:14.019Z,93.94
2022-10-25T09:09:14.015Z,94.35
2022-10-25T09:10:14.011Z,94.24
2022-10-25T09:11:14.030Z,94.20
2022-10-25T09:12:13.998Z,93.43
2022-10-25T09:13:14.000Z,94.20
2022-10-25T09:14:13.977Z,94.71
2022-10-25T09:15:13.968Z,94.00
2022-10-25T09:16:13.994Z,94.45
2022-10-25T09:17:13.956Z,94.20
2022-10-25T09:18:13.942Z,94.04
2022-10-25T09:19:13.998Z,94.85
2022-10-25T09:20:13.926Z,94.71
2022-10-25T09:21:17.519Z,94.45
2022-10-25T09:22:14.917Z,94.10
2022-10-25T09:23:13.930Z,94.10
2022-10-25T09:24:13.889Z,94.50
2022-10-25T09:25:13.897Z,94.50
2022-10-25T09:26:13.909Z,93.70
2022-10-25T09:27:13.877Z,93.59
2022-10-25T09:28:13.864Z,93.55
2022-10-25T09:29:13.854Z,93.85
2022-10-25T09:30:13.845Z,92.94
2022-10-25T09:31:13.864Z,92.54
2022-10-25T09:32:13.826Z,93.24
2022-10-25T09:33:13.915Z,92.84
2022-10-25T09:34:13.815Z,92.44
2022-10-25T09:35:13.804Z,92.13
2022-10-25T09:36:13.814Z,92.69
2022-10-25T09:37:13.795Z,92.09
2022-10-25T09:38:13.774Z,92.13
2022-10-25T09:39:15.951Z,92.69
2022-10-25T09:40:14.756Z,91.69
2022-10-25T09:41:13.778Z,92.03
2022-10-25T09:42:13.739Z,92.03
2022-10-25T09:43:13.735Z,92.60
2022-10-25T09:44:13.721Z,93.00
2022-10-25T09:45:13.712Z,93.60
2022-10-25T09:46:13.730Z,91.99
2022-10-25T09:47:13.701Z,92.55
2022-10-25T09:48:13.686Z,91.74
2022-10-25T09:49:13.678Z,91.18
2022-10-25T09:50:13.667Z,91.03
2022-10-25T09:51:13.694Z,91.44
2022-10-25T09:52:13.650Z,91.34
2022-10-25T09:53:14.258Z,90.23
2022-10-25T09:54:13.651Z,90.23
2022-10-25T09:55:13.627Z,90.63
2022-10-25T09:56:13.646Z,90.43
2022-10-25T09:57:13.635Z,91.34
2022-10-25T09:58:13.604Z,90.94
2022-10-25T09:59:13.600Z,90.69
2022-10-25T10:00:13.591Z,90.28
2022-10-25T10:01:13.690Z,90.28
2022-10-25T10:02:13.769Z,90.33
2022-10-25T10:03:13.568Z,90.69
2022-10-25T10:04:13.558Z,90.28
2022-10-25T10:05:13.542Z,89.74
2022-10-25T10:06:13.537Z,88.93
2022-10-25T10:07:13.563Z,88.53
2022-10-25T10:08:13.525Z,88.23
2022-10-25T10:09:13.516Z,89.34
2022-10-25T10:10:13.544Z,89.23
2022-10-25T10:11:13.506Z,89.43
2022-10-25T10:12:13.516Z,88.83
2022-10-25T10:13:13.489Z,89.23
2022-10-25T10:14:13.472Z,89.07
2022-10-25T10:15:13.467Z,89.64
2022-10-25T10:16:13.458Z,89.88
2022-10-25T10:17:13.483Z,89.98
2022-10-25T10:18:13.445Z,90.08
2022-10-25T10:19:13.431Z,90.65
2022-10-25T10:20:13.422Z,89.03
2022-10-25T10:21:13.410Z,88.65
2022-10-25T10:22:13.457Z,87.40
2022-10-25T10:23:13.395Z,86.95
2022-10-25T10:24:13.392Z,83.99
2022-10-25T10:25:13.381Z,83.20
2022-10-25T10:26:13.367Z,83.00
2022-10-25T10:27:13.395Z,82.54
2022-10-25T10:28:13.350Z,82.04
2022-10-25T10:29:17.560Z,83.48
2022-10-25T10:30:14.364Z,82.66
2022-10-25T10:31:13.326Z,80.33
2022-10-25T10:32:13.346Z,77.87
2022-10-25T10:33:13.314Z,78.48
2022-10-25T10:34:13.301Z,74.84
2022-10-25T10:35:13.295Z,77.44
2022-10-25T10:36:13.286Z,75.87
2022-10-25T10:37:13.312Z,74.16
2022-10-25T10:38:13.268Z,70.95
2022-10-25T10:39:13.258Z,71.15
2022-10-25T10:40:13.361Z,71.26
2022-10-25T10:41:13.241Z,71.12
2022-10-25T10:42:15.158Z,74.03
2022-10-25T10:43:14.228Z,72.66
2022-10-25T10:44:13.235Z,73.73
2022-10-25T10:45:13.209Z,75.84
2022-10-25T10:46:13.204Z,75.92
2022-10-25T10:47:14.217Z,78.20
2022-10-25T10:48:13.190Z,79.41
2022-10-25T10:49:13.178Z,78.00
2022-10-25T10:50:13.241Z,78.67
2022-10-25T10:51:25.506Z,78.94
2022-10-25T10:52:15.210Z,79.54
2022-10-25T10:53:13.146Z,80.22
2022-10-25T10:54:13.209Z,80.77
2022-10-25T10:55:13.122Z,81.77
2022-10-25T10:56:13.128Z,81.13
2022-10-25T10:57:13.136Z,81.33
2022-10-25T10:58:13.098Z,81.63
2022-10-25T10:59:13.089Z,81.47
2022-10-25T11:00:13.105Z,80.66
2022-10-25T11:01:13.176Z,81.77
2022-10-25T11:02:13.312Z,82.68
2022-10-25T11:03:13.057Z,81.37
2022-10-25T11:04:13.055Z,81.77
2022-10-25T11:05:13.040Z,82.07
2022-10-25T11:06:13.037Z,81.67
2022-10-25T11:07:13.057Z,82.28
2022-10-25T11:08:13.013Z,82.38
2022-10-25T11:09:13.061Z,82.28
2022-10-25T11:10:12.995Z,82.18
2022-10-25T11:11:12.989Z,81.30
2022-10-25T11:12:13.015Z,82.82
2022-10-25T11:13:13.043Z,82.82
2022-10-25T11:14:12.959Z,83.76
2022-10-25T11:15:12.954Z,83.87
2022-10-25T11:16:12.943Z,82.62
2022-10-25T11:17:12.941Z,83.32
2022-10-25T11:18:12.964Z,82.62
2022-10-25T11:19:12.922Z,82.92
2022-10-25T11:20:12.913Z,81.91
2022-10-25T11:21:12.895Z,82.71
2022-10-25T11:22:12.922Z,84.13
2022-10-25T11:23:12.902Z,84.03
2022-10-25T11:24:12.875Z,84.33
2022-10-25T11:25:12.865Z,83.42
2022-10-25T11:26:12.860Z,82.18
2022-10-25T11:27:12.863Z,83.89
2022-10-25T11:28:12.877Z,82.68
2022-10-25T11:29:12.907Z,83.39
2022-10-25T11:30:12.825Z,82.44
2022-10-25T11:31:12.823Z,82.94
2022-10-25T11:32:12.812Z,82.50
2022-10-25T11:33:12.838Z,80.55
2022-10-25T11:34:12.792Z,80.41
2022-10-25T11:35:12.782Z,80.11
2022-10-25T11:36:12.775Z,79.61
2022-10-25T11:37:12.766Z,79.53
2022-10-25T11:38:12.785Z,79.43
2022-10-25T11:39:12.748Z,78.63
2022-10-25T11:40:12.750Z,78.80
2022-10-25T11:41:12.733Z,80.75
2022-10-25T11:42:12.749Z,80.75
2022-10-25T11:43:12.745Z,81.05
2022-10-25T11:44:12.709Z,80.75
2022-10-25T11:45:12.765Z,80.83
2022-10-25T11:46:12.677Z,80.83
2022-10-25T11:47:13.682Z,81.47
2022-10-25T11:48:12.705Z,81.21
2022-10-25T11:49:12.658Z,81.41
2022-10-25T11:50:12.653Z,82.42
2022-10-25T11:51:12.660Z,83.12
2022-10-25T11:52:12.634Z,83.26
2022-10-25T11:53:12.659Z,83.12
2022-10-25T11:54:12.614Z,83.97
2022-10-25T11:55:12.613Z,83.16
2022-10-25T11:56:12.609Z,83.97
2022-10-25T11:57:12.607Z,84.17
2022-10-25T11:58:12.614Z,83.46
2022-10-25T11:59:12.580Z,84.27
2022-10-25T12:00:12.661Z,82.59
2022-10-25T12:01:12.730Z,83.70
2022-10-25T12:02:12.556Z,83.20
2022-10-25T12:03:12.618Z,84.05
2022-10-25T12:04:12.551Z,83.70
2022-10-25T12:05:12.524Z,83.60
2022-10-25T12:06:12.524Z,82.79
2022-10-25T12:07:12.516Z,83.20
2022-10-25T12:08:12.537Z,84.01
2022-10-25T12:09:12.493Z,84.31
2022-10-25T12:10:12.487Z,84.35
2022-10-25T12:11:15.003Z,85.11
2022-10-25T12:12:13.483Z,84.41
2022-10-25T12:13:12.503Z,84.95
2022-10-25T12:14:12.459Z,84.05
2022-10-25T12:15:12.458Z,84.61
2022-10-25T12:16:12.442Z,83.91
2022-10-25T12:17:12.502Z,84.31
2022-10-25T12:18:12.459Z,85.08
2022-10-25T12:19:12.418Z,84.41
2022-10-25T12:20:12.416Z,83.76
2022-10-25T12:21:12.402Z,83.06
2022-10-25T12:22:12.396Z,84.17
2022-10-25T12:23:12.413Z,83.26
2022-10-25T12:24:12.370Z,84.07
2022-10-25T12:25:12.373Z,84.07
2022-10-25T12:26:12.358Z,83.00
2022-10-25T12:27:12.354Z,82.90
2022-10-25T12:28:12.375Z,83.60
2022-10-25T12:29:12.345Z,82.90
2022-10-25T12:30:12.361Z,82.90
2022-10-25T12:31:12.313Z,84.31
2022-10-25T12:32:12.314Z,83.60
2022-10-25T12:33:12.400Z,83.70
2022-10-25T12:34:12.309Z,84.11
2022-10-25T12:35:12.284Z,83.50
2022-10-25T12:36:12.274Z,84.17
2022-10-25T12:37:12.272Z,83.36
2022-10-25T12:38:12.288Z,83.99
2022-10-25T12:39:12.259Z,82.78
2022-10-25T12:40:12.276Z,81.33
2022-10-25T12:41:12.237Z,80.52
2022-10-25T12:42:12.230Z,81.37
2022-10-25T12:43:12.251Z,81.47
2022-10-25T12:44:12.204Z,81.98
2022-10-25T12:45:12.198Z,81.17
2022-10-25T12:46:12.186Z,81.27
2022-10-25T12:47:12.188Z,82.31
2022-10-25T12:48:12.208Z,82.51
2022-10-25T12:49:19.174Z,81.01
2022-10-25T12:50:12.185Z,82.01
2022-10-25T12:51:15.173Z,81.55
2022-10-25T12:52:12.152Z,82.65
2022-10-25T12:53:12.166Z,82.56